createdAt,value
2018-06-01T00:03:27.744Z,17.80
2018-06-01T00:08:56.674Z,17.80
2018-06-01T00:14:25.618Z,17.70
2018-06-01T00:19:54.514Z,17.60
2018-06-01T00:25:23.560Z,17.60
2018-06-01T00:30:51.693Z,17.50
2018-06-01T00:36:19.849Z,17.50
2018-06-01T00:41:48.002Z,17.50
2018-06-01T00:47:16.190Z,17.50
2018-06-01T00:52:44.360Z,17.40
2018-06-01T00:58:12.548Z,17.40
2018-06-01T01:03:40.716Z,17.40
2018-06-01T01:09:09.685Z,17.30
2018-06-01T01:14:37.885Z,17.30
2018-06-01T01:20:06.801Z,17.20
2018-06-01T01:25:34.936Z,17.20
2018-06-01T01:31:03.854Z,17.10
2018-06-01T01:36:31.992Z,17.10
2018-06-01T01:42:00.884Z,17.00
2018-06-01T01:47:29.040Z,17.00
2018-06-01T01:52:57.324Z,16.90
2018-06-01T01:58:27.392Z,16.90
2018-06-01T02:03:55.839Z,16.80
2018-06-01T02:09:24.122Z,16.70
2018-06-01T02:14:52.303Z,16.70
2018-06-01T02:20:20.495Z,16.70
2018-06-01T02:25:49.328Z,16.60
2018-06-01T02:31:17.485Z,16.50
2018-06-01T02:36:46.406Z,16.50
2018-06-01T02:42:14.576Z,16.40
2018-06-01T02:47:42.761Z,16.40
2018-06-01T02:53:11.707Z,16.30
2018-06-01T02:58:40.639Z,16.20
2018-06-01T03:04:08.792Z,16.20
2018-06-01T03:09:37.989Z,16.20
2018-06-01T03:15:06.909Z,16.10
2018-06-01T03:20:35.060Z,16.10
2018-06-01T03:26:03.973Z,16.00
2018-06-01T03:31:33.098Z,16.00
2018-06-01T03:37:01.248Z,15.90
2018-06-01T03:42:30.201Z,15.90
2018-06-01T03:47:59.103Z,15.90
2018-06-01T03:53:27.253Z,15.90
2018-06-01T03:58:56.169Z,15.90
2018-06-01T04:04:24.407Z,15.90
2018-06-01T04:09:53.313Z,16.00
2018-06-01T04:15:21.459Z,16.00
2018-06-01T04:20:49.600Z,16.00
2018-06-01T04:26:18.495Z,16.20
2018-06-01T04:31:47.764Z,16.10
2018-06-01T04:37:16.824Z,16.30
2018-06-01T04:42:45.735Z,16.40
2018-06-01T04:48:13.903Z,16.30
2018-06-01T04:53:42.392Z,16.40
2018-06-01T04:59:10.554Z,16.50
2018-06-01T05:04:38.706Z,16.50
2018-06-01T05:10:06.858Z,16.50
2018-06-01T05:15:35.775Z,16.50
2018-06-01T05:21:03.927Z,16.50
2018-06-01T05:26:32.084Z,16.50
2018-06-01T05:32:01.044Z,16.50
2018-06-01T05:37:30.101Z,16.50
2018-06-01T05:42:59.030Z,16.50
2018-06-01T05:48:27.188Z,16.50
2018-06-01T05:53:55.320Z,16.50
2018-06-01T05:59:23.479Z,16.50
2018-06-01T06:04:51.638Z,16.50
2018-06-01T06:10:20.554Z,16.40
2018-06-01T06:15:48.711Z,16.40
2018-06-01T06:21:16.852Z,16.30
2018-06-01T06:26:45.018Z,16.20
2018-06-01T06:32:13.185Z,16.10
2018-06-01T06:37:41.407Z,16.10
2018-06-01T06:43:09.680Z,16.10
2018-06-01T06:48:37.874Z,16.20
2018-06-01T06:54:06.050Z,16.20
2018-06-01T06:59:34.184Z,16.30
2018-06-01T07:05:02.346Z,16.40
2018-06-01T07:10:30.485Z,16.60
2018-06-01T07:15:59.381Z,17.00
2018-06-01T07:21:27.530Z,17.10
2018-06-01T07:26:55.684Z,17.70
2018-06-01T07:32:23.830Z,18.30
2018-06-01T07:37:52.041Z,18.70
2018-06-01T07:43:20.196Z,18.90
2018-06-01T07:48:48.345Z,18.90
2018-06-01T07:54:17.258Z,19.40
2018-06-01T07:59:45.413Z,19.40
2018-06-01T08:05:13.554Z,19.60
2018-06-01T08:10:41.830Z,19.50
2018-06-01T08:16:10.901Z,19.70
2018-06-01T08:21:39.082Z,19.70
2018-06-01T08:27:07.261Z,19.90
2018-06-01T08:32:35.443Z,19.90
2018-06-01T08:38:03.553Z,20.10
2018-06-01T08:43:32.468Z,20.40
2018-06-01T08:49:00.610Z,20.40
2018-06-01T08:54:29.492Z,20.60
2018-06-01T08:59:57.634Z,20.60
2018-06-01T09:05:25.780Z,20.70
2018-06-01T09:10:53.916Z,20.60
2018-06-01T09:16:22.838Z,21.40
2018-06-01T09:21:51.766Z,21.60
2018-06-01T09:27:19.949Z,21.50
2018-06-01T09:32:48.113Z,21.40
2018-06-01T09:38:16.267Z,21.40
2018-06-01T09:43:44.418Z,21.60
2018-06-01T09:49:12.631Z,21.80
2018-06-01T09:54:40.801Z,22.20
2018-06-01T10:00:09.977Z,22.40
2018-06-01T10:05:38.174Z,22.70
2018-06-01T10:11:09.305Z,23.00
2018-06-01T10:16:37.483Z,22.70
2018-06-01T10:22:06.407Z,22.50
2018-06-01T10:27:34.564Z,22.50
2018-06-01T10:33:02.795Z,22.40
2018-06-01T10:38:30.926Z,22.60
2018-06-01T10:43:59.788Z,22.70
2018-06-01T10:49:27.944Z,22.70
2018-06-01T10:54:56.110Z,22.60
2018-06-01T11:00:24.279Z,22.70
2018-06-01T11:05:53.209Z,22.60
2018-06-01T11:11:22.124Z,23.20
2018-06-01T11:16:50.260Z,23.20
2018-06-01T11:22:19.149Z,23.00
2018-06-01T11:27:47.396Z,23.00
2018-06-01T11:33:16.340Z,23.40
2018-06-01T11:38:44.541Z,23.30
2018-06-01T11:44:12.724Z,23.60
2018-06-01T11:49:40.869Z,23.90
2018-06-01T11:55:09.326Z,24.10
2018-06-01T12:00:37.636Z,23.90
2018-06-01T12:06:05.801Z,23.80
2018-06-01T12:11:33.940Z,23.60
2018-06-01T12:17:02.076Z,23.60
2018-06-01T12:22:30.293Z,23.70
2018-06-01T12:27:58.468Z,24.30
2018-06-01T12:33:27.434Z,24.60
2018-06-01T12:38:55.569Z,24.60
2018-06-01T12:44:23.708Z,24.30
2018-06-01T12:49:51.859Z,24.20
2018-06-01T12:55:20.760Z,24.90
2018-06-01T13:00:48.912Z,24.90
2018-06-01T13:06:17.919Z,24.50
2018-06-01T13:11:46.067Z,24.50
2018-06-01T13:17:16.030Z,24.30
2018-06-01T13:22:44.953Z,24.20
2018-06-01T13:28:13.918Z,24.20
2018-06-01T13:33:42.861Z,24.70
2018-06-01T13:39:11.790Z,24.90
2018-06-01T13:44:41.120Z,25.10
2018-06-01T13:50:09.355Z,25.10
2018-06-01T13:55:38.340Z,25.50
2018-06-01T14:01:06.472Z,25.40
2018-06-01T14:06:34.617Z,25.20
2018-06-01T14:12:02.781Z,25.20
2018-06-01T14:17:30.921Z,25.00
2018-06-01T14:22:59.053Z,25.00
2018-06-01T14:28:27.202Z,24.90
2018-06-01T14:33:56.126Z,24.80
2018-06-01T14:39:24.262Z,24.80
2018-06-01T14:44:53.167Z,24.50
2018-06-01T14:50:21.315Z,24.40
2018-06-01T14:55:50.231Z,29.30
2018-06-01T15:01:19.361Z,29.20
2018-06-01T15:06:47.525Z,28.70
2018-06-01T15:12:16.532Z,26.40
2018-06-01T15:17:44.677Z,26.30
2018-06-01T15:23:13.740Z,25.40
2018-06-01T15:28:41.971Z,25.30
2018-06-01T15:34:10.107Z,25.00
2018-06-01T15:39:38.259Z,25.00
2018-06-01T15:45:15.072Z,24.90
2018-06-01T15:50:44.200Z,24.80
2018-06-01T15:56:13.133Z,24.60
2018-06-01T16:01:41.304Z,24.40
2018-06-01T16:07:09.479Z,24.40
2018-06-01T16:12:37.669Z,24.40
2018-06-01T16:18:05.829Z,24.50
2018-06-01T16:23:33.948Z,24.50
2018-06-01T16:29:02.173Z,24.50
2018-06-01T16:34:30.337Z,24.50
2018-06-01T16:39:58.487Z,24.30
2018-06-01T16:45:26.629Z,24.20
2018-06-01T16:50:54.770Z,24.10
2018-06-01T16:56:23.681Z,23.80
2018-06-01T17:01:51.823Z,23.80
2018-06-01T17:07:19.986Z,23.90
2018-06-01T17:12:48.236Z,23.90
2018-06-01T17:18:16.391Z,23.80
2018-06-01T17:23:45.463Z,23.50
2018-06-01T17:29:13.666Z,23.50
2018-06-01T17:34:41.846Z,23.50
2018-06-01T17:40:11.707Z,23.30
2018-06-01T17:45:41.006Z,23.30
2018-06-01T17:51:10.079Z,23.20
2018-06-01T17:56:38.288Z,23.20
2018-06-01T18:02:06.438Z,23.10
2018-06-01T18:07:34.590Z,23.10
2018-06-01T18:13:03.496Z,22.90
2018-06-01T18:18:31.646Z,22.90
2018-06-01T18:23:59.795Z,22.80
2018-06-01T18:29:27.967Z,22.70
2018-06-01T18:34:56.759Z,22.70
2018-06-01T18:40:24.922Z,22.60
2018-06-01T18:45:54.789Z,22.50
2018-06-01T18:51:23.726Z,22.40
2018-06-01T18:56:52.655Z,22.40
2018-06-01T19:02:20.854Z,22.40
2018-06-01T19:07:49.007Z,22.30
2018-06-01T19:13:17.992Z,22.30
2018-06-01T19:18:46.180Z,22.20
2018-06-01T19:24:14.384Z,22.20
2018-06-01T19:29:43.334Z,22.10
2018-06-01T19:35:11.543Z,22.10
2018-06-01T19:40:39.771Z,22.00
2018-06-01T19:46:09.666Z,21.90
2018-06-01T19:51:37.902Z,21.90
2018-06-01T19:57:06.098Z,21.80
2018-06-01T20:02:34.276Z,21.70
2018-06-01T20:08:03.205Z,21.70
2018-06-01T20:13:32.356Z,21.70
2018-06-01T20:19:00.749Z,21.60
2018-06-01T20:24:28.888Z,21.50
2018-06-01T20:29:57.079Z,21.40
2018-06-01T20:35:25.961Z,21.30
2018-06-01T20:40:54.901Z,21.20
2018-06-01T20:46:23.851Z,21.00
2018-06-01T20:51:52.756Z,20.90
2018-06-01T20:57:20.912Z,20.90
2018-06-01T21:02:49.818Z,20.70
2018-06-01T21:08:17.984Z,20.60
2018-06-01T21:13:46.131Z,20.60
2018-06-01T21:19:14.330Z,20.50
2018-06-01T21:24:42.783Z,20.30
2018-06-01T21:30:12.374Z,20.10
2018-06-01T21:35:40.553Z,20.10
2018-06-01T21:41:08.857Z,20.00
2018-06-01T21:46:36.994Z,19.90
2018-06-01T21:52:05.137Z,19.80
2018-06-01T21:57:33.546Z,19.70
2018-06-01T22:03:01.695Z,19.60
2018-06-01T22:08:33.697Z,20.00
2018-06-01T22:14:02.746Z,19.70
2018-06-01T22:19:30.899Z,19.60
2018-06-01T22:24:59.082Z,19.40
2018-06-01T22:30:27.230Z,19.30
2018-06-01T22:35:55.359Z,19.20
2018-06-01T22:41:24.491Z,19.10
2018-06-01T22:46:52.622Z,19.10
2018-06-01T22:52:20.762Z,19.00
2018-06-01T22:57:48.904Z,18.90
2018-06-01T23:03:17.043Z,18.90
2018-06-01T23:08:45.995Z,18.80
2018-06-01T23:14:14.966Z,18.80
2018-06-01T23:19:43.172Z,18.70
2018-06-01T23:25:11.389Z,18.70
2018-06-01T23:30:43.415Z,18.60
2018-06-01T23:36:11.797Z,18.60
2018-06-01T23:41:40.742Z,18.40
2018-06-01T23:47:09.729Z,18.40
2018-06-01T23:52:37.957Z,18.40
2018-06-01T23:58:06.116Z,18.30
